sensor_id;sensor_type;location;lat;lon;timestamp;P1;durP1;ratioP1;P2;durP2;ratioP2
13999;SDS011;7075;53.574;10.054;2022-12-29T00:02:07;802.88;;;741.35;;
13999;SDS011;7075;53.574;10.054;2022-12-29T00:04:33;786.72;;;726.92;;
13999;SDS011;7075;53.574;10.054;2022-12-29T00:06:59;806.17;;;743.53;;
13999;SDS011;7075;53.574;10.054;2022-12-29T00:09:25;818.10;;;755.20;;
13999;SDS011;7075;53.574;10.054;2022-12-29T00:11:51;804.58;;;742.72;;
13999;SDS011;7075;53.574;10.054;2022-12-29T00:14:17;811.77;;;749.40;;
13999;SDS011;7075;53.574;10.054;2022-12-29T00:17:01;848.55;;;779.53;;
13999;SDS011;7075;53.574;10.054;2022-12-29T00:19:26;840.80;;;774.20;;
13999;SDS011;7075;53.574;10.054;2022-12-29T00:22:11;857.45;;;788.20;;
13999;SDS011;7075;53.574;10.054;2022-12-29T00:24:57;841.15;;;773.35;;
13999;SDS011;7075;53.574;10.054;2022-12-29T00:27:26;918.50;;;840.75;;
13999;SDS011;7075;53.574;10.054;2022-12-29T00:30:14;910.83;;;833.50;;
13999;SDS011;7075;53.574;10.054;2022-12-29T00:33:00;958.95;;;878.25;;
13999;SDS011;7075;53.574;10.054;2022-12-29T00:35:50;959.20;;;877.72;;
13999;SDS011;7075;53.574;10.054;2022-12-29T00:38:19;940.30;;;860.20;;
13999;SDS011;7075;53.574;10.054;2022-12-29T00:41:12;974.22;;;894.45;;
13999;SDS011;7075;53.574;10.054;2022-12-29T00:43:56;964.50;;;885.55;;
13999;SDS011;7075;53.574;10.054;2022-12-29T00:46:32;991.17;;;909.85;;
13999;SDS011;7075;53.574;10.054;2022-12-29T00:48:58;975.30;;;895.05;;
13999;SDS011;7075;53.574;10.054;2022-12-29T00:51:43;938.22;;;863.78;;
13999;SDS011;7075;53.574;10.054;2022-12-29T00:54:09;952.17;;;875.28;;
13999;SDS011;7075;53.574;10.054;2022-12-29T00:56:34;920.83;;;846.60;;
13999;SDS011;7075;53.574;10.054;2022-12-29T00:59:04;961.90;;;885.17;;
13999;SDS011;7075;53.574;10.054;2022-12-29T01:01:31;945.55;;;869.47;;
13999;SDS011;7075;53.574;10.054;2022-12-29T01:03:57;987.00;;;909.83;;
13999;SDS011;7075;53.574;10.054;2022-12-29T01:06:22;1045.18;;;962.47;;
13999;SDS011;7075;53.574;10.054;2022-12-29T01:08:48;950.17;;;874.00;;
13999;SDS011;7075;53.574;10.054;2022-12-29T01:11:34;1010.40;;;928.03;;
13999;SDS011;7075;53.574;10.054;2022-12-29T01:13:59;997.87;;;919.00;;
13999;SDS011;7075;53.574;10.054;2022-12-29T01:16:27;1033.32;;;953.33;;
13999;SDS011;7075;53.574;10.054;2022-12-29T01:18:52;1045.88;;;966.88;;
13999;SDS011;7075;53.574;10.054;2022-12-29T01:21:18;1039.73;;;962.17;;
13999;SDS011;7075;53.574;10.054;2022-12-29T01:23:43;1038.80;;;959.73;;
13999;SDS011;7075;53.574;10.054;2022-12-29T01:26:10;1021.92;;;947.05;;
13999;SDS011;7075;53.574;10.054;2022-12-29T01:28:37;967.58;;;898.53;;
13999;SDS011;7075;53.574;10.054;2022-12-29T01:31:04;968.55;;;900.40;;
13999;SDS011;7075;53.574;10.054;2022-12-29T01:33:30;969.78;;;900.30;;
13999;SDS011;7075;53.574;10.054;2022-12-29T01:36:06;955.00;;;885.60;;
13999;SDS011;7075;53.574;10.054;2022-12-29T01:38:34;974.55;;;904.00;;
13999;SDS011;7075;53.574;10.054;2022-12-29T01:41:01;976.15;;;905.60;;
13999;SDS011;7075;53.574;10.054;2022-12-29T01:46:13;996.08;;;921.90;;
13999;SDS011;7075;53.574;10.054;2022-12-29T01:48:46;991.53;;;916.90;;
13999;SDS011;7075;53.574;10.054;2022-12-29T01:51:14;1004.97;;;927.40;;
13999;SDS011;7075;53.574;10.054;2022-12-29T01:53:40;1062.53;;;974.38;;
13999;SDS011;7075;53.574;10.054;2022-12-29T01:56:07;1055.10;;;965.22;;
13999;SDS011;7075;53.574;10.054;2022-12-29T01:58:37;1054.80;;;965.42;;
13999;SDS011;7075;53.574;10.054;2022-12-29T02:01:06;1064.18;;;975.47;;
13999;SDS011;7075;53.574;10.054;2022-12-29T02:03:33;1040.75;;;951.78;;
13999;SDS011;7075;53.574;10.054;2022-12-29T02:08:26;1016.97;;;930.33;;
13999;SDS011;7075;53.574;10.054;2022-12-29T02:10:54;1043.00;;;953.93;;
13999;SDS011;7075;53.574;10.054;2022-12-29T02:13:23;993.88;;;908.17;;
13999;SDS011;7075;53.574;10.054;2022-12-29T02:26:52;1025.07;;;942.47;;
13999;SDS011;7075;53.574;10.054;2022-12-29T02:32:58;1012.05;;;935.88;;
13999;SDS011;7075;53.574;10.054;2022-12-29T02:35:40;985.33;;;912.97;;
13999;SDS011;7075;53.574;10.054;2022-12-29T02:38:20;995.03;;;920.17;;
13999;SDS011;7075;53.574;10.054;2022-12-29T02:41:12;962.03;;;891.85;;
13999;SDS011;7075;53.574;10.054;2022-12-29T02:43:49;960.33;;;889.43;;
13999;SDS011;7075;53.574;10.054;2022-12-29T02:46:26;905.75;;;842.38;;
13999;SDS011;7075;53.574;10.054;2022-12-29T02:51:48;963.03;;;892.35;;
13999;SDS011;7075;53.574;10.054;2022-12-29T02:54:25;1001.47;;;924.58;;
13999;SDS011;7075;53.574;10.054;2022-12-29T02:57:48;985.17;;;910.20;;
13999;SDS011;7075;53.574;10.054;2022-12-29T03:00:02;1006.45;;;929.75;;
13999;SDS011;7075;53.574;10.054;2022-12-29T03:07:39;921.70;;;850.20;;
13999;SDS011;7075;53.574;10.054;2022-12-29T03:12:56;907.22;;;835.35;;
13999;SDS011;7075;53.574;10.054;2022-12-29T03:16:03;927.67;;;852.65;;
13999;SDS011;7075;53.574;10.054;2022-12-29T03:21:22;963.38;;;886.25;;
13999;SDS011;7075;53.574;10.054;2022-12-29T03:24:15;970.85;;;893.10;;
13999;SDS011;7075;53.574;10.054;2022-12-29T03:26:43;989.40;;;910.83;;
13999;SDS011;7075;53.574;10.054;2022-12-29T03:29:10;963.45;;;884.00;;
13999;SDS011;7075;53.574;10.054;2022-12-29T03:31:37;1002.60;;;923.27;;
13999;SDS011;7075;53.574;10.054;2022-12-29T03:34:04;973.63;;;894.65;;
13999;SDS011;7075;53.574;10.054;2022-12-29T03:36:52;973.30;;;896.38;;
13999;SDS011;7075;53.574;10.054;2022-12-29T03:39:21;936.17;;;861.35;;
13999;SDS011;7075;53.574;10.054;2022-12-29T03:41:48;990.13;;;910.08;;
13999;SDS011;7075;53.574;10.054;2022-12-29T03:44:19;966.90;;;887.30;;
13999;SDS011;7075;53.574;10.054;2022-12-29T03:46:45;1024.95;;;942.70;;
13999;SDS011;7075;53.574;10.054;2022-12-29T03:49:11;992.28;;;916.40;;
13999;SDS011;7075;53.574;10.054;2022-12-29T03:51:37;986.97;;;912.70;;
13999;SDS011;7075;53.574;10.054;2022-12-29T03:54:02;974.47;;;901.00;;
13999;SDS011;7075;53.574;10.054;2022-12-29T03:56:28;975.88;;;903.60;;
13999;SDS011;7075;53.574;10.054;2022-12-29T03:58:53;989.77;;;917.03;;
13999;SDS011;7075;53.574;10.054;2022-12-29T04:01:19;995.00;;;922.37;;
13999;SDS011;7075;53.574;10.054;2022-12-29T04:03:44;996.40;;;921.97;;
13999;SDS011;7075;53.574;10.054;2022-12-29T04:06:10;1008.03;;;934.47;;
13999;SDS011;7075;53.574;10.054;2022-12-29T04:08:35;1022.87;;;948.27;;
13999;SDS011;7075;53.574;10.054;2022-12-29T04:11:01;1050.00;;;971.30;;
13999;SDS011;7075;53.574;10.054;2022-12-29T04:13:26;1061.00;;;981.63;;
13999;SDS011;7075;53.574;10.054;2022-12-29T04:15:52;1002.87;;;930.30;;
13999;SDS011;7075;53.574;10.054;2022-12-29T04:18:18;980.28;;;910.42;;
13999;SDS011;7075;53.574;10.054;2022-12-29T04:23:37;991.45;;;922.72;;
13999;SDS011;7075;53.574;10.054;2022-12-29T04:26:04;1002.90;;;933.35;;
13999;SDS011;7075;53.574;10.054;2022-12-29T04:28:32;957.97;;;891.83;;
13999;SDS011;7075;53.574;10.054;2022-12-29T04:30:57;954.00;;;887.87;;
13999;SDS011;7075;53.574;10.054;2022-12-29T04:33:23;956.70;;;891.37;;
13999;SDS011;7075;53.574;10.054;2022-12-29T04:35:49;954.37;;;888.30;;
13999;SDS011;7075;53.574;10.054;2022-12-29T04:38:15;941.50;;;876.38;;
13999;SDS011;7075;53.574;10.054;2022-12-29T04:40:42;927.50;;;865.23;;
13999;SDS011;7075;53.574;10.054;2022-12-29T04:43:08;920.27;;;857.73;;
13999;SDS011;7075;53.574;10.054;2022-12-29T04:45:35;909.13;;;847.38;;
13999;SDS011;7075;53.574;10.054;2022-12-29T04:48:00;896.57;;;836.17;;
13999;SDS011;7075;53.574;10.054;2022-12-29T04:50:26;917.13;;;853.83;;
13999;SDS011;7075;53.574;10.054;2022-12-29T04:52:52;908.78;;;847.88;;
13999;SDS011;7075;53.574;10.054;2022-12-29T04:55:18;953.57;;;886.63;;
13999;SDS011;7075;53.574;10.054;2022-12-29T04:57:44;908.00;;;846.87;;
13999;SDS011;7075;53.574;10.054;2022-12-29T05:00:09;929.70;;;865.67;;
13999;SDS011;7075;53.574;10.054;2022-12-29T05:02:36;907.50;;;845.53;;
13999;SDS011;7075;53.574;10.054;2022-12-29T05:05:02;912.80;;;850.35;;
13999;SDS011;7075;53.574;10.054;2022-12-29T05:07:28;931.60;;;866.95;;
13999;SDS011;7075;53.574;10.054;2022-12-29T05:09:54;961.53;;;895.10;;
13999;SDS011;7075;53.574;10.054;2022-12-29T05:12:19;967.88;;;898.40;;
13999;SDS011;7075;53.574;10.054;2022-12-29T05:14:45;1020.47;;;946.70;;
13999;SDS011;7075;53.574;10.054;2022-12-29T05:20:32;1039.80;;;959.08;;
13999;SDS011;7075;53.574;10.054;2022-12-29T05:22:58;1001.97;;;925.40;;
13999;SDS011;7075;53.574;10.054;2022-12-29T05:25:24;1018.67;;;936.08;;
13999;SDS011;7075;53.574;10.054;2022-12-29T05:27:49;1043.93;;;957.33;;
13999;SDS011;7075;53.574;10.054;2022-12-29T05:30:15;1006.77;;;921.70;;
13999;SDS011;7075;53.574;10.054;2022-12-29T05:32:40;991.50;;;907.40;;
13999;SDS011;7075;53.574;10.054;2022-12-29T05:35:06;926.45;;;847.72;;
13999;SDS011;7075;53.574;10.054;2022-12-29T05:37:32;942.67;;;861.55;;
13999;SDS011;7075;53.574;10.054;2022-12-29T05:39:57;934.28;;;853.80;;
13999;SDS011;7075;53.574;10.054;2022-12-29T05:42:24;948.58;;;866.78;;
13999;SDS011;7075;53.574;10.054;2022-12-29T05:44:49;964.00;;;880.03;;
13999;SDS011;7075;53.574;10.054;2022-12-29T05:47:19;967.33;;;884.83;;
13999;SDS011;7075;53.574;10.054;2022-12-29T05:49:44;1032.13;;;943.67;;
13999;SDS011;7075;53.574;10.054;2022-12-29T05:55:09;1058.40;;;968.50;;
13999;SDS011;7075;53.574;10.054;2022-12-29T05:57:36;1039.07;;;953.45;;
13999;SDS011;7075;53.574;10.054;2022-12-29T06:00:02;1023.88;;;943.90;;
13999;SDS011;7075;53.574;10.054;2022-12-29T06:02:31;996.78;;;921.08;;
13999;SDS011;7075;53.574;10.054;2022-12-29T06:04:56;903.67;;;838.27;;
13999;SDS011;7075;53.574;10.054;2022-12-29T06:07:22;957.67;;;888.05;;
13999;SDS011;7075;53.574;10.054;2022-12-29T06:09:47;900.07;;;837.27;;
13999;SDS011;7075;53.574;10.054;2022-12-29T06:12:13;864.23;;;804.77;;
13999;SDS011;7075;53.574;10.054;2022-12-29T06:14:38;864.83;;;805.30;;
13999;SDS011;7075;53.574;10.054;2022-12-29T06:17:04;897.57;;;834.60;;
13999;SDS011;7075;53.574;10.054;2022-12-29T06:19:29;893.97;;;831.43;;
13999;SDS011;7075;53.574;10.054;2022-12-29T06:21:55;892.60;;;830.03;;
13999;SDS011;7075;53.574;10.054;2022-12-29T06:24:20;879.50;;;818.77;;
13999;SDS011;7075;53.574;10.054;2022-12-29T06:26:46;864.83;;;803.80;;
13999;SDS011;7075;53.574;10.054;2022-12-29T06:29:12;851.30;;;793.23;;
13999;SDS011;7075;53.574;10.054;2022-12-29T06:31:41;890.13;;;828.05;;
13999;SDS011;7075;53.574;10.054;2022-12-29T06:34:08;841.23;;;784.17;;
13999;SDS011;7075;53.574;10.054;2022-12-29T06:36:34;868.60;;;809.80;;
13999;SDS011;7075;53.574;10.054;2022-12-29T06:38:59;857.45;;;799.80;;
13999;SDS011;7075;53.574;10.054;2022-12-29T06:41:25;842.78;;;786.00;;
13999;SDS011;7075;53.574;10.054;2022-12-29T06:43:50;917.90;;;853.30;;
13999;SDS011;7075;53.574;10.054;2022-12-29T06:46:15;883.92;;;823.88;;
13999;SDS011;7075;53.574;10.054;2022-12-29T06:48:41;889.70;;;828.67;;
13999;SDS011;7075;53.574;10.054;2022-12-29T06:51:07;892.40;;;831.13;;
13999;SDS011;7075;53.574;10.054;2022-12-29T06:53:33;962.78;;;892.92;;
13999;SDS011;7075;53.574;10.054;2022-12-29T06:55:58;996.93;;;923.83;;
13999;SDS011;7075;53.574;10.054;2022-12-29T06:58:24;1053.05;;;970.78;;
13999;SDS011;7075;53.574;10.054;2022-12-29T07:00:49;999.30;;;925.47;;
13999;SDS011;7075;53.574;10.054;2022-12-29T07:03:15;1028.20;;;950.77;;
13999;SDS011;7075;53.574;10.054;2022-12-29T07:05:40;982.30;;;909.33;;
13999;SDS011;7075;53.574;10.054;2022-12-29T07:08:06;1006.00;;;932.30;;
13999;SDS011;7075;53.574;10.054;2022-12-29T07:10:31;939.60;;;871.80;;
13999;SDS011;7075;53.574;10.054;2022-12-29T07:12:57;926.90;;;861.08;;
13999;SDS011;7075;53.574;10.054;2022-12-29T07:15:22;903.37;;;840.40;;
13999;SDS011;7075;53.574;10.054;2022-12-29T07:17:48;872.43;;;812.00;;
13999;SDS011;7075;53.574;10.054;2022-12-29T07:20:17;918.75;;;854.47;;
13999;SDS011;7075;53.574;10.054;2022-12-29T07:22:42;887.13;;;825.60;;
13999;SDS011;7075;53.574;10.054;2022-12-29T07:25:08;864.13;;;804.47;;
13999;SDS011;7075;53.574;10.054;2022-12-29T07:27:34;864.80;;;805.55;;
13999;SDS011;7075;53.574;10.054;2022-12-29T07:29:59;835.00;;;778.55;;
13999;SDS011;7075;53.574;10.054;2022-12-29T07:32:25;855.30;;;796.83;;
13999;SDS011;7075;53.574;10.054;2022-12-29T07:34:51;864.70;;;804.70;;
13999;SDS011;7075;53.574;10.054;2022-12-29T07:37:17;878.05;;;817.05;;
13999;SDS011;7075;53.574;10.054;2022-12-29T07:39:43;897.75;;;834.97;;
13999;SDS011;7075;53.574;10.054;2022-12-29T07:42:08;886.93;;;825.13;;
13999;SDS011;7075;53.574;10.054;2022-12-29T07:44:34;904.23;;;840.40;;
13999;SDS011;7075;53.574;10.054;2022-12-29T07:47:01;880.97;;;819.63;;
13999;SDS011;7075;53.574;10.054;2022-12-29T07:49:27;882.90;;;820.73;;
13999;SDS011;7075;53.574;10.054;2022-12-29T07:51:52;868.33;;;807.83;;
13999;SDS011;7075;53.574;10.054;2022-12-29T07:54:18;882.93;;;821.73;;
13999;SDS011;7075;53.574;10.054;2022-12-29T07:56:43;871.93;;;811.33;;
13999;SDS011;7075;53.574;10.054;2022-12-29T07:59:09;909.67;;;845.38;;
13999;SDS011;7075;53.574;10.054;2022-12-29T08:01:36;1003.63;;;928.03;;
13999;SDS011;7075;53.574;10.054;2022-12-29T08:04:02;1002.80;;;927.63;;
13999;SDS011;7075;53.574;10.054;2022-12-29T08:06:28;1039.90;;;959.00;;
13999;SDS011;7075;53.574;10.054;2022-12-29T08:08:55;1003.70;;;927.53;;
13999;SDS011;7075;53.574;10.054;2022-12-29T08:11:21;1023.42;;;944.58;;
13999;SDS011;7075;53.574;10.054;2022-12-29T08:13:47;1002.38;;;926.65;;
13999;SDS011;7075;53.574;10.054;2022-12-29T08:16:12;1017.87;;;940.30;;
13999;SDS011;7075;53.574;10.054;2022-12-29T08:18:38;1021.80;;;942.73;;
13999;SDS011;7075;53.574;10.054;2022-12-29T08:21:04;994.13;;;918.88;;
13999;SDS011;7075;53.574;10.054;2022-12-29T08:23:30;1013.70;;;937.75;;
13999;SDS011;7075;53.574;10.054;2022-12-29T08:25:57;936.65;;;869.20;;
13999;SDS011;7075;53.574;10.054;2022-12-29T08:28:23;875.00;;;813.90;;
13999;SDS011;7075;53.574;10.054;2022-12-29T08:30:49;874.50;;;814.23;;
13999;SDS011;7075;53.574;10.054;2022-12-29T08:33:15;861.38;;;801.83;;
13999;SDS011;7075;53.574;10.054;2022-12-29T08:35:40;858.90;;;799.00;;
13999;SDS011;7075;53.574;10.054;2022-12-29T08:38:06;830.97;;;773.30;;
13999;SDS011;7075;53.574;10.054;2022-12-29T08:40:31;879.13;;;818.13;;
13999;SDS011;7075;53.574;10.054;2022-12-29T08:42:57;852.17;;;792.67;;
13999;SDS011;7075;53.574;10.054;2022-12-29T08:45:22;884.87;;;822.03;;
13999;SDS011;7075;53.574;10.054;2022-12-29T08:47:48;883.17;;;822.30;;
13999;SDS011;7075;53.574;10.054;2022-12-29T08:50:14;868.30;;;808.60;;
13999;SDS011;7075;53.574;10.054;2022-12-29T08:52:39;819.17;;;762.80;;
13999;SDS011;7075;53.574;10.054;2022-12-29T08:55:05;861.90;;;802.93;;
13999;SDS011;7075;53.574;10.054;2022-12-29T08:57:30;868.65;;;808.22;;
13999;SDS011;7075;53.574;10.054;2022-12-29T08:59:56;874.72;;;813.97;;
13999;SDS011;7075;53.574;10.054;2022-12-29T09:02:21;843.67;;;786.55;;
13999;SDS011;7075;53.574;10.054;2022-12-29T09:04:47;859.33;;;801.50;;
13999;SDS011;7075;53.574;10.054;2022-12-29T09:07:12;840.08;;;783.53;;
13999;SDS011;7075;53.574;10.054;2022-12-29T09:09:38;779.23;;;728.73;;
13999;SDS011;7075;53.574;10.054;2022-12-29T09:12:03;854.90;;;799.00;;
13999;SDS011;7075;53.574;10.054;2022-12-29T09:14:29;829.03;;;775.08;;
13999;SDS011;7075;53.574;10.054;2022-12-29T09:16:54;734.27;;;689.03;;
13999;SDS011;7075;53.574;10.054;2022-12-29T09:19:38;687.03;;;646.43;;
13999;SDS011;7075;53.574;10.054;2022-12-29T09:22:04;750.33;;;702.87;;
13999;SDS011;7075;53.574;10.054;2022-12-29T09:24:30;737.55;;;691.50;;
13999;SDS011;7075;53.574;10.054;2022-12-29T09:26:55;722.78;;;678.15;;
13999;SDS011;7075;53.574;10.054;2022-12-29T09:29:21;743.33;;;695.60;;
13999;SDS011;7075;53.574;10.054;2022-12-29T09:31:47;724.40;;;679.17;;
13999;SDS011;7075;53.574;10.054;2022-12-29T09:34:12;698.60;;;656.07;;
13999;SDS011;7075;53.574;10.054;2022-12-29T09:36:38;711.42;;;668.05;;
13999;SDS011;7075;53.574;10.054;2022-12-29T09:39:03;676.43;;;636.13;;
13999;SDS011;7075;53.574;10.054;2022-12-29T09:41:35;674.63;;;633.30;;
13999;SDS011;7075;53.574;10.054;2022-12-29T09:44:07;704.80;;;661.38;;
13999;SDS011;7075;53.574;10.054;2022-12-29T09:46:47;680.40;;;638.90;;
13999;SDS011;7075;53.574;10.054;2022-12-29T09:52:13;721.07;;;675.50;;
13999;SDS011;7075;53.574;10.054;2022-12-29T09:55:02;746.10;;;698.17;;
13999;SDS011;7075;53.574;10.054;2022-12-29T09:57:45;711.67;;;666.67;;
13999;SDS011;7075;53.574;10.054;2022-12-29T10:00:22;677.92;;;635.95;;
13999;SDS011;7075;53.574;10.054;2022-12-29T10:02:59;686.42;;;643.15;;
13999;SDS011;7075;53.574;10.054;2022-12-29T10:05:38;688.80;;;645.80;;
13999;SDS011;7075;53.574;10.054;2022-12-29T10:08:26;689.38;;;646.08;;
13999;SDS011;7075;53.574;10.054;2022-12-29T10:16:26;654.85;;;615.28;;
13999;SDS011;7075;53.574;10.054;2022-12-29T10:25:02;628.30;;;591.88;;
13999;SDS011;7075;53.574;10.054;2022-12-29T10:27:37;579.65;;;547.45;;
13999;SDS011;7075;53.574;10.054;2022-12-29T10:30:03;614.13;;;579.45;;
13999;SDS011;7075;53.574;10.054;2022-12-29T10:37:43;613.65;;;577.47;;
13999;SDS011;7075;53.574;10.054;2022-12-29T10:40:18;605.65;;;570.80;;
13999;SDS011;7075;53.574;10.054;2022-12-29T10:42:53;588.90;;;556.08;;
13999;SDS011;7075;53.574;10.054;2022-12-29T10:45:21;584.13;;;551.78;;
13999;SDS011;7075;53.574;10.054;2022-12-29T10:47:55;624.70;;;587.70;;
13999;SDS011;7075;53.574;10.054;2022-12-29T10:50:28;598.92;;;565.47;;
13999;SDS011;7075;53.574;10.054;2022-12-29T10:52:55;579.17;;;547.17;;
13999;SDS011;7075;53.574;10.054;2022-12-29T10:55:26;577.63;;;545.80;;
13999;SDS011;7075;53.574;10.054;2022-12-29T10:57:55;597.72;;;564.35;;
13999;SDS011;7075;53.574;10.054;2022-12-29T11:00:29;594.15;;;561.08;;
13999;SDS011;7075;53.574;10.054;2022-12-29T11:06:01;583.40;;;551.08;;
13999;SDS011;7075;53.574;10.054;2022-12-29T11:08:47;566.97;;;536.10;;
13999;SDS011;7075;53.574;10.054;2022-12-29T11:11:23;571.35;;;539.45;;
13999;SDS011;7075;53.574;10.054;2022-12-29T11:13:55;568.38;;;537.38;;
13999;SDS011;7075;53.574;10.054;2022-12-29T11:16:27;538.70;;;509.48;;
13999;SDS011;7075;53.574;10.054;2022-12-29T11:18:55;540.90;;;512.03;;
13999;SDS011;7075;53.574;10.054;2022-12-29T11:21:32;572.77;;;540.90;;
13999;SDS011;7075;53.574;10.054;2022-12-29T11:24:05;548.85;;;519.80;;
13999;SDS011;7075;53.574;10.054;2022-12-29T11:26:43;551.73;;;522.10;;
13999;SDS011;7075;53.574;10.054;2022-12-29T11:31:42;523.83;;;496.23;;
13999;SDS011;7075;53.574;10.054;2022-12-29T11:34:32;511.65;;;484.67;;
13999;SDS011;7075;53.574;10.054;2022-12-29T11:37:00;514.13;;;487.27;;
13999;SDS011;7075;53.574;10.054;2022-12-29T11:39:30;494.25;;;468.38;;
13999;SDS011;7075;53.574;10.054;2022-12-29T11:42:17;504.20;;;478.00;;
13999;SDS011;7075;53.574;10.054;2022-12-29T11:44:45;508.88;;;482.38;;
13999;SDS011;7075;53.574;10.054;2022-12-29T11:47:28;518.83;;;491.77;;
13999;SDS011;7075;53.574;10.054;2022-12-29T11:49:57;502.80;;;476.63;;
13999;SDS011;7075;53.574;10.054;2022-12-29T11:52:26;509.70;;;483.10;;
13999;SDS011;7075;53.574;10.054;2022-12-29T11:54:54;504.13;;;477.95;;
13999;SDS011;7075;53.574;10.054;2022-12-29T11:57:20;483.42;;;458.63;;
13999;SDS011;7075;53.574;10.054;2022-12-29T11:59:49;502.42;;;476.15;;
13999;SDS011;7075;53.574;10.054;2022-12-29T12:04:46;511.10;;;484.45;;
13999;SDS011;7075;53.574;10.054;2022-12-29T12:07:20;514.17;;;487.05;;
13999;SDS011;7075;53.574;10.054;2022-12-29T12:10:03;492.08;;;466.83;;
13999;SDS011;7075;53.574;10.054;2022-12-29T12:12:33;517.53;;;490.02;;
13999;SDS011;7075;53.574;10.054;2022-12-29T12:15:04;522.05;;;494.60;;
13999;SDS011;7075;53.574;10.054;2022-12-29T12:17:37;527.77;;;499.50;;
13999;SDS011;7075;53.574;10.054;2022-12-29T12:20:16;544.92;;;516.00;;
13999;SDS011;7075;53.574;10.054;2022-12-29T12:22:58;537.70;;;508.90;;
13999;SDS011;7075;53.574;10.054;2022-12-29T12:25:41;537.83;;;508.85;;
13999;SDS011;7075;53.574;10.054;2022-12-29T12:28:19;552.47;;;522.78;;
13999;SDS011;7075;53.574;10.054;2022-12-29T12:30:52;576.67;;;545.08;;
13999;SDS011;7075;53.574;10.054;2022-12-29T12:33:27;573.72;;;542.30;;
13999;SDS011;7075;53.574;10.054;2022-12-29T12:39:00;569.35;;;538.28;;
13999;SDS011;7075;53.574;10.054;2022-12-29T12:44:45;608.13;;;573.97;;
13999;SDS011;7075;53.574;10.054;2022-12-29T12:47:38;624.47;;;588.22;;
13999;SDS011;7075;53.574;10.054;2022-12-29T13:01:31;668.80;;;628.60;;
13999;SDS011;7075;53.574;10.054;2022-12-29T13:07:07;614.15;;;579.05;;
13999;SDS011;7075;53.574;10.054;2022-12-29T13:13:14;568.90;;;537.47;;
13999;SDS011;7075;53.574;10.054;2022-12-29T13:18:18;513.23;;;485.97;;
13999;SDS011;7075;53.574;10.054;2022-12-29T13:23:33;504.73;;;478.15;;
13999;SDS011;7075;53.574;10.054;2022-12-29T13:26:14;582.33;;;550.28;;
13999;SDS011;7075;53.574;10.054;2022-12-29T13:28:52;697.00;;;654.78;;
13999;SDS011;7075;53.574;10.054;2022-12-29T13:37:07;771.03;;;721.78;;
13999;SDS011;7075;53.574;10.054;2022-12-29T13:39:38;766.83;;;717.10;;
13999;SDS011;7075;53.574;10.054;2022-12-29T13:42:07;752.58;;;703.67;;
13999;SDS011;7075;53.574;10.054;2022-12-29T13:44:37;713.92;;;668.72;;
13999;SDS011;7075;53.574;10.054;2022-12-29T13:47:16;747.47;;;699.42;;
13999;SDS011;7075;53.574;10.054;2022-12-29T13:49:51;714.05;;;669.88;;
13999;SDS011;7075;53.574;10.054;2022-12-29T13:58:14;742.10;;;694.33;;
13999;SDS011;7075;53.574;10.054;2022-12-29T14:00:57;739.50;;;692.70;;
13999;SDS011;7075;53.574;10.054;2022-12-29T14:03:40;726.60;;;681.10;;
13999;SDS011;7075;53.574;10.054;2022-12-29T14:06:15;734.40;;;688.35;;
13999;SDS011;7075;53.574;10.054;2022-12-29T14:08:42;755.30;;;706.15;;
13999;SDS011;7075;53.574;10.054;2022-12-29T14:11:12;759.63;;;710.72;;
13999;SDS011;7075;53.574;10.054;2022-12-29T14:13:41;759.53;;;711.05;;
13999;SDS011;7075;53.574;10.054;2022-12-29T14:16:26;757.55;;;708.72;;
13999;SDS011;7075;53.574;10.054;2022-12-29T14:19:03;769.60;;;718.78;;
13999;SDS011;7075;53.574;10.054;2022-12-29T14:21:34;827.55;;;771.65;;
13999;SDS011;7075;53.574;10.054;2022-12-29T14:34:50;858.63;;;795.42;;
13999;SDS011;7075;53.574;10.054;2022-12-29T14:37:46;902.72;;;832.60;;
13999;SDS011;7075;53.574;10.054;2022-12-29T14:40:17;972.17;;;893.80;;
13999;SDS011;7075;53.574;10.054;2022-12-29T14:42:47;924.75;;;851.10;;
13999;SDS011;7075;53.574;10.054;2022-12-29T14:47:40;990.30;;;906.95;;
13999;SDS011;7075;53.574;10.054;2022-12-29T14:58:03;1087.65;;;993.25;;
13999;SDS011;7075;53.574;10.054;2022-12-29T15:00:32;1085.90;;;992.45;;
13999;SDS011;7075;53.574;10.054;2022-12-29T15:05:42;1111.70;;;999.90;;
13999;SDS011;7075;53.574;10.054;2022-12-29T15:08:11;1128.63;;;999.90;;
13999;SDS011;7075;53.574;10.054;2022-12-29T15:11:00;1113.55;;;999.90;;
13999;SDS011;7075;53.574;10.054;2022-12-29T15:13:37;1121.68;;;999.90;;
13999;SDS011;7075;53.574;10.054;2022-12-29T15:16:05;1152.38;;;999.90;;
13999;SDS011;7075;53.574;10.054;2022-12-29T15:18:45;1112.20;;;999.90;;
13999;SDS011;7075;53.574;10.054;2022-12-29T15:21:11;1083.55;;;999.67;;
13999;SDS011;7075;53.574;10.054;2022-12-29T15:23:40;1067.25;;;985.90;;
13999;SDS011;7075;53.574;10.054;2022-12-29T15:26:08;1075.25;;;993.28;;
13999;SDS011;7075;53.574;10.054;2022-12-29T15:28:45;1112.90;;;999.90;;
13999;SDS011;7075;53.574;10.054;2022-12-29T15:31:13;1074.32;;;992.75;;
13999;SDS011;7075;53.574;10.054;2022-12-29T15:33:41;1037.18;;;961.50;;
13999;SDS011;7075;53.574;10.054;2022-12-29T15:36:12;1043.13;;;966.30;;
13999;SDS011;7075;53.574;10.054;2022-12-29T15:38:42;1015.33;;;941.53;;
13999;SDS011;7075;53.574;10.054;2022-12-29T15:44:03;1014.28;;;940.80;;
13999;SDS011;7075;53.574;10.054;2022-12-29T15:46:41;980.07;;;909.27;;
13999;SDS011;7075;53.574;10.054;2022-12-29T15:49:07;996.90;;;922.13;;
13999;SDS011;7075;53.574;10.054;2022-12-29T15:51:37;957.47;;;888.65;;
13999;SDS011;7075;53.574;10.054;2022-12-29T15:54:04;945.95;;;878.05;;
13999;SDS011;7075;53.574;10.054;2022-12-29T15:56:31;966.33;;;895.03;;
13999;SDS011;7075;53.574;10.054;2022-12-29T15:58:58;948.42;;;879.92;;
13999;SDS011;7075;53.574;10.054;2022-12-29T16:01:31;944.58;;;876.08;;
13999;SDS011;7075;53.574;10.054;2022-12-29T16:03:58;959.33;;;889.35;;
13999;SDS011;7075;53.574;10.054;2022-12-29T16:06:26;945.85;;;877.60;;
13999;SDS011;7075;53.574;10.054;2022-12-29T16:09:41;908.92;;;845.05;;
13999;SDS011;7075;53.574;10.054;2022-12-29T16:11:50;888.92;;;827.38;;
13999;SDS011;7075;53.574;10.054;2022-12-29T16:14:21;868.75;;;808.38;;
13999;SDS011;7075;53.574;10.054;2022-12-29T16:17:34;835.40;;;778.80;;
13999;SDS011;7075;53.574;10.054;2022-12-29T16:20:19;876.40;;;816.67;;
13999;SDS011;7075;53.574;10.054;2022-12-29T16:22:48;923.78;;;859.75;;
13999;SDS011;7075;53.574;10.054;2022-12-29T16:25:22;889.95;;;830.25;;
13999;SDS011;7075;53.574;10.054;2022-12-29T16:27:51;874.13;;;813.83;;
13999;SDS011;7075;53.574;10.054;2022-12-29T16:30:21;884.55;;;824.20;;